PDT,Max TemperatureF,Mean TemperatureF,Min TemperatureF,Max Dew PointF,MeanDew PointF,Min DewpointF,Max Humidity, Mean Humidity, Min Humidity, Max Sea Level PressureIn, Mean Sea Level PressureIn, Min Sea Level PressureIn, Max VisibilityMiles, Mean VisibilityMiles, Min VisibilityMiles, Max Wind SpeedMPH, Mean Wind SpeedMPH, Max Gust SpeedMPH,PrecipitationIn, CloudCover, Events, WindDirDegrees
2014-4-1,59,48,39,40,36,33,86,65,41,29.80,29.73,29.65,10,10,10,15,7,,0.00,3,,258
2014-4-2,64,50,39,39,33,25,86,57,26,30.00,29.92,29.82,10,10,10,17,10,23,0.00,1,,237
2014-4-3,63,46,30,42,36,28,89,61,35,30.01,29.96,29.90,10,10,10,20,4,24,0.00,2,Rain,195
2014-4-4,63,54,45,42,36,31,90,56,31,29.95,29.91,29.85,10,10,10,17,9,26,0.00,5,,233
2014-4-5,64,50,36,48,40,32,89,67,40,30.05,30.01,29.96,10,10,8,18,8,24,0.05,6,Rain,237
2014-4-6,71,59,48,46,43,38,80,59,31,30.26,30.15,30.06,10,10,10,23,13,32,0.01,1,Rain,243
2014-4-7,78,57,37,44,41,35,96,62,26,30.29,30.19,30.07,10,10,7,9,4,,0.00,0,,100
2014-4-8,78,60,42,49,43,36,92,56,23,30.11,30.03,29.92,10,10,10,16,8,20,0.00,0,,226
2014-4-9,68,58,48,48,35,24,70,45,20,30.13,30.07,30.02,10,10,10,18,11,25,0.00,2,,250
2014-4-10,68,50,34,35,31,26,79,47,23,30.18,30.10,30.01,10,10,10,12,7,,0.00,0,,214
2014-4-11,72,54,37,37,34,29,83,51,24,30.03,29.96,29.86,10,10,10,8,4,,0.00,0,,215
2014-4-12,68,52,39,39,30,23,79,45,23,30.06,29.98,29.94,10,10,10,10,6,,0.00,2,,348
2014-4-13,66,48,30,34,26,18,85,45,17,30.33,30.27,30.11,10,10,10,10,4,20,0.00,0,,54
2014-4-14,70,47,25,36,28,21,85,45,22,30.26,30.10,29.94,10,10,10,16,6,20,0.00,0,,216
2014-4-15,66,56,48,35,33,29,57,42,27,30.09,30.03,29.99,10,10,10,28,17,34,0.00,1,,247
2014-4-16,68,57,48,41,37,35,63,49,32,30.07,30.02,29.95,10,10,10,16,12,21,0.00,4,,231
2014-4-17,55,52,50,52,48,41,96,84,59,29.94,29.85,29.80,10,10,10,18,8,,0.23,7,Rain,202
2014-4-18,63,52,37,40,34,28,83,55,29,30.07,30.00,29.88,10,10,10,23,17,33,0.00,0,,233
2014-4-19,69,49,32,39,36,30,96,62,32,30.19,29.95,29.85,10,10,10,24,6,32,0.00,1,,265
2014-4-20,66,52,39,40,36,33,82,55,30,30.32,30.22,30.11,10,10,10,12,6,,0.00,0,,187
2014-4-21,68,52,35,45,39,33,96,65,36,30.10,29.93,29.74,10,10,10,13,5,,0.00,2,,128
2014-4-22,61,52,41,46,37,25,97,61,25,29.93,29.83,29.76,10,10,10,28,14,39,0.14,3,Rain,240
2014-4-23,63,52,41,48,40,35,89,67,43,29.95,29.89,29.78,10,10,10,14,5,,0.04,6,Rain,217
2014-4-24,66,58,50,49,43,37,89,61,36,29.86,29.79,29.73,10,10,10,21,10,29,0.05,3,Rain,236
2014-4-25,61,52,43,39,37,33,76,58,38,29.85,29.78,29.73,10,10,10,12,7,,0.00,4,,205
2014-4-26,63,52,42,36,32,26,79,51,26,29.79,29.75,29.71,10,10,10,23,12,30,0.00,2,Rain,237
2014-4-27,62,54,45,40,35,29,77,55,31,30.09,29.86,29.70,10,10,10,24,13,36,0.01,2,Rain,238
2014-4-28,64,52,39,34,30,24,76,48,22,30.40,30.30,30.14,10,10,10,16,9,17,0.00,0,,230
2014-4-29,73,54,35,37,31,19,82,48,13,30.56,30.48,30.42,10,10,10,12,5,,0.00,0,,74
2014-4-30,80,58,37,40,35,27,89,50,15,30.48,30.37,30.22,10,10,10,12,5,,0.00,0,,95